createdAt,value
2024-04-08T06:44:33.622Z,34.60
2024-04-08T06:47:01.555Z,17.00
2024-04-08T06:49:28.536Z,21.10
2024-04-08T06:51:55.547Z,18.97
2024-04-08T06:54:22.617Z,21.97
2024-04-08T06:56:49.900Z,24.47
2024-04-08T06:59:17.139Z,16.70
2024-04-08T07:01:44.205Z,21.60
2024-04-08T07:04:11.204Z,26.83
2024-04-08T07:06:38.278Z,19.77
2024-04-08T07:09:05.340Z,13.73
2024-04-08T07:11:32.372Z,30.70
2024-04-08T07:13:59.388Z,18.10
2024-04-08T07:16:26.404Z,25.87
2024-04-08T07:18:53.352Z,13.47
2024-04-08T07:21:20.375Z,15.73
2024-04-08T07:23:53.265Z,14.33
2024-04-08T07:26:20.751Z,24.87
2024-04-08T07:28:47.819Z,28.67
2024-04-08T07:31:14.838Z,28.07
2024-04-08T07:33:42.029Z,28.37
2024-04-08T07:36:09.254Z,26.47
2024-04-08T07:38:36.345Z,20.07
2024-04-08T07:41:03.393Z,43.57
2024-04-08T07:43:31.857Z,23.60
2024-04-08T07:45:58.902Z,29.43
2024-04-08T07:48:26.030Z,31.17
2024-04-08T07:50:53.535Z,26.70
2024-04-08T07:53:20.590Z,30.50
2024-04-08T07:55:47.609Z,21.23
2024-04-08T07:58:14.651Z,25.17
2024-04-08T08:00:46.202Z,23.83
2024-04-08T08:03:15.291Z,26.50
2024-04-08T08:05:43.998Z,23.57
2024-04-08T08:08:11.160Z,31.97
2024-04-08T08:10:38.204Z,22.07
2024-04-08T08:13:05.673Z,43.00
2024-04-08T08:15:33.215Z,39.00
2024-04-08T08:18:00.338Z,26.97
2024-04-08T08:20:28.301Z,23.07
2024-04-08T08:22:58.242Z,39.87
2024-04-08T08:25:25.944Z,35.80
2024-04-08T08:27:53.214Z,28.00
2024-04-08T08:30:20.331Z,22.07
2024-04-08T08:32:48.231Z,33.27
2024-04-08T08:35:15.567Z,28.23
2024-04-08T08:37:45.245Z,26.47
2024-04-08T08:40:12.632Z,33.23
2024-04-08T08:42:39.891Z,27.97
2024-04-08T08:45:12.559Z,27.47
2024-04-08T08:47:40.119Z,25.70
2024-04-08T08:50:07.708Z,22.10
2024-04-08T08:52:35.145Z,23.97
2024-04-08T08:55:02.714Z,18.83
2024-04-08T08:57:31.423Z,26.67
2024-04-08T09:00:05.082Z,24.43
2024-04-08T09:02:33.999Z,24.57
2024-04-08T09:05:01.030Z,31.57
2024-04-08T09:07:28.067Z,34.77
2024-04-08T09:09:56.115Z,15.60
2024-04-08T09:12:23.283Z,18.47
2024-04-08T09:14:51.754Z,23.23
2024-04-08T09:17:19.761Z,18.87
2024-04-08T09:19:46.820Z,21.83
2024-04-08T09:22:15.161Z,20.80
2024-04-08T09:24:44.000Z,15.30
2024-04-08T09:27:11.847Z,20.93
2024-04-08T09:29:40.224Z,21.87
2024-04-08T09:32:09.807Z,21.80
2024-04-08T09:34:37.180Z,23.87
2024-04-08T09:37:05.102Z,21.93
2024-04-08T09:39:33.177Z,20.03
2024-04-08T09:42:01.675Z,28.37
2024-04-08T09:44:32.270Z,24.47
2024-04-08T09:47:03.246Z,17.83
2024-04-08T09:49:41.568Z,20.57
2024-04-08T09:52:14.781Z,21.17
2024-04-08T09:54:41.789Z,24.40
2024-04-08T09:57:11.924Z,19.47
2024-04-08T09:59:39.957Z,23.47
2024-04-08T10:02:22.024Z,20.93
2024-04-08T10:04:54.283Z,25.33
2024-04-08T10:07:21.382Z,18.13
2024-04-08T10:09:48.428Z,17.73
2024-04-08T10:12:15.475Z,27.87
2024-04-08T10:14:42.524Z,21.20
2024-04-08T10:17:10.303Z,30.13
2024-04-08T10:19:37.289Z,22.90
2024-04-08T10:22:04.500Z,23.33
2024-04-08T10:24:39.913Z,23.63
2024-04-08T10:27:09.846Z,23.80
2024-04-08T10:29:37.463Z,32.90
2024-04-08T10:32:05.431Z,21.10
2024-04-08T10:34:35.188Z,27.03
2024-04-08T10:37:02.170Z,27.87
2024-04-08T10:39:29.636Z,22.57
2024-04-08T10:41:59.568Z,26.57
2024-04-08T10:44:29.381Z,29.40
2024-04-08T10:46:56.538Z,26.13
2024-04-08T10:49:23.646Z,20.20
2024-04-08T10:51:52.400Z,24.30
2024-04-08T10:54:22.290Z,28.30
2024-04-08T10:56:50.361Z,25.10
2024-04-08T10:59:17.499Z,23.90
2024-04-08T11:01:45.253Z,26.73
2024-04-08T11:04:13.499Z,26.40
2024-04-08T11:06:41.077Z,19.43
2024-04-08T11:09:08.178Z,21.73
2024-04-08T11:11:35.251Z,25.90
2024-04-08T11:14:06.011Z,23.20
2024-04-08T11:16:34.082Z,22.17
2024-04-08T11:19:02.574Z,18.97
2024-04-08T11:21:29.714Z,26.40
2024-04-08T11:23:56.968Z,19.47
2024-04-08T11:26:24.263Z,27.30
2024-04-08T11:28:51.347Z,21.50
2024-04-08T11:31:18.444Z,17.17
2024-04-08T11:33:45.574Z,28.20
2024-04-08T11:36:12.852Z,25.97
2024-04-08T11:38:43.320Z,19.17
2024-04-08T11:41:10.540Z,29.10
2024-04-08T11:43:37.789Z,24.70
2024-04-08T11:46:05.600Z,31.90
2024-04-08T11:48:33.366Z,24.77
2024-04-08T11:51:00.685Z,23.93
2024-04-08T11:53:27.851Z,22.27
2024-04-08T11:55:54.893Z,26.50
2024-04-08T11:58:21.979Z,32.57
2024-04-08T12:00:49.613Z,33.10
2024-04-08T12:03:16.981Z,25.03
2024-04-08T12:05:45.570Z,27.40
2024-04-08T12:08:12.650Z,30.70
2024-04-08T12:10:40.095Z,41.93
2024-04-08T12:13:18.259Z,19.00
2024-04-08T12:15:46.329Z,27.27
2024-04-08T12:18:13.995Z,41.03
2024-04-08T12:20:41.087Z,33.60
2024-04-08T12:23:12.730Z,28.40
2024-04-08T12:25:40.910Z,29.07
2024-04-08T12:28:11.056Z,26.97
2024-04-08T12:30:38.113Z,27.67
2024-04-08T12:33:05.372Z,26.47
2024-04-08T12:35:32.399Z,29.57
2024-04-08T12:37:59.530Z,35.13
2024-04-08T12:40:26.637Z,30.33
2024-04-08T12:42:53.707Z,28.50
2024-04-08T12:45:21.150Z,30.63
2024-04-08T12:47:49.122Z,22.10
2024-04-08T12:50:16.312Z,35.13
2024-04-08T12:52:43.581Z,29.70
2024-04-08T12:55:10.713Z,27.50
2024-04-08T12:57:37.877Z,34.63
2024-04-08T13:00:06.502Z,28.60
2024-04-08T13:02:33.624Z,29.17
2024-04-08T13:05:00.620Z,29.80
2024-04-08T13:07:27.932Z,24.33
2024-04-08T13:09:54.982Z,28.57
2024-04-08T13:12:22.353Z,32.20
2024-04-08T13:14:49.979Z,30.27
2024-04-08T13:17:17.038Z,26.83
2024-04-08T13:19:46.378Z,36.53
2024-04-08T13:22:13.596Z,35.20
2024-04-08T13:24:40.577Z,29.03
2024-04-08T13:27:07.689Z,30.40
2024-04-08T13:29:34.827Z,34.13
2024-04-08T13:32:01.931Z,30.10
2024-04-08T13:34:29.084Z,38.80
2024-04-08T13:36:56.286Z,35.60
2024-04-08T13:39:23.402Z,26.47
2024-04-08T13:41:50.470Z,29.23
2024-04-08T13:44:17.451Z,31.70
2024-04-08T13:46:44.729Z,37.50
2024-04-08T13:49:11.803Z,47.43
2024-04-08T13:51:39.181Z,34.10
2024-04-08T13:54:06.384Z,39.93
2024-04-08T13:56:36.193Z,41.70
2024-04-08T13:59:03.947Z,34.93
2024-04-08T14:01:31.443Z,32.00
2024-04-08T14:04:00.302Z,36.47
2024-04-08T14:06:28.024Z,40.93
2024-04-08T14:08:55.205Z,41.57
2024-04-08T14:11:25.450Z,30.83
2024-04-08T14:14:04.923Z,29.37
2024-04-08T14:16:32.336Z,30.70
2024-04-08T14:18:59.491Z,39.63
2024-04-08T14:21:26.498Z,34.90
2024-04-08T14:23:53.582Z,48.50
2024-04-08T14:26:24.084Z,36.87
2024-04-08T14:28:51.177Z,30.43
2024-04-08T14:31:18.368Z,38.67
2024-04-08T14:33:57.941Z,47.57
2024-04-08T14:36:34.379Z,28.03
2024-04-08T14:39:22.092Z,49.47
2024-04-08T14:45:24.783Z,36.40
2024-04-08T14:48:44.232Z,43.23
2024-04-08T14:51:22.217Z,33.07
2024-04-08T14:53:51.036Z,34.93
2024-04-08T14:59:21.819Z,43.70
2024-04-08T15:02:24.324Z,52.50
2024-04-08T15:05:01.212Z,37.47
2024-04-08T15:07:32.174Z,33.77
2024-04-08T15:09:59.406Z,47.03
2024-04-08T15:12:26.555Z,37.47
2024-04-08T15:14:53.636Z,34.17
2024-04-08T15:17:22.621Z,35.87
2024-04-08T15:19:50.416Z,42.33
2024-04-08T15:22:17.423Z,38.97
2024-04-08T15:24:49.128Z,35.13
2024-04-08T15:27:16.418Z,35.17
2024-04-08T15:29:46.618Z,48.13
2024-04-08T15:32:14.391Z,35.23
2024-04-08T15:34:45.639Z,41.13
2024-04-08T15:37:13.083Z,35.53
2024-04-08T15:39:40.190Z,36.47
2024-04-08T15:42:07.330Z,42.93
2024-04-08T15:44:34.370Z,46.60
2024-04-08T15:47:04.190Z,33.03
2024-04-08T15:49:36.983Z,48.40
2024-04-08T15:55:30.742Z,44.83
2024-04-08T15:58:04.294Z,39.30
2024-04-08T16:00:40.705Z,37.60
2024-04-08T16:03:21.740Z,53.67
2024-04-08T16:05:49.407Z,45.83
2024-04-08T16:08:24.241Z,30.80
2024-04-08T16:10:52.128Z,38.23
2024-04-08T16:13:19.423Z,43.53
2024-04-08T16:15:56.380Z,41.47
2024-04-08T16:33:24.674Z,38.23
2024-04-08T16:36:04.492Z,35.00
2024-04-08T16:44:25.546Z,47.53
2024-04-08T16:47:46.493Z,37.27
2024-04-08T16:50:13.698Z,48.70
2024-04-08T16:52:40.917Z,52.57
2024-04-08T16:55:09.125Z,43.13
2024-04-08T16:57:41.303Z,38.57
2024-04-08T17:00:17.689Z,66.10
2024-04-08T17:02:54.639Z,53.87
2024-04-08T17:05:24.143Z,34.53
2024-04-08T17:07:52.438Z,58.97
2024-04-08T17:10:23.396Z,41.00
2024-04-08T17:12:50.424Z,60.23
2024-04-08T17:15:20.611Z,44.00
2024-04-08T17:18:01.460Z,41.67
2024-04-08T17:23:21.241Z,42.30
2024-04-08T17:26:13.131Z,43.37
2024-04-08T17:28:57.092Z,43.07
2024-04-08T17:31:24.232Z,48.50
2024-04-08T17:33:51.383Z,51.07
2024-04-08T17:36:18.618Z,60.40
2024-04-08T17:38:48.680Z,48.23
2024-04-08T17:41:19.632Z,44.93
2024-04-08T17:43:56.117Z,43.07
2024-04-08T17:46:23.440Z,47.73
2024-04-08T17:48:50.714Z,49.67
2024-04-08T17:51:17.861Z,40.80
2024-04-08T17:53:44.927Z,52.00
2024-04-08T17:56:15.157Z,50.97
2024-04-08T17:58:42.407Z,49.70
2024-04-08T18:01:15.710Z,48.27
2024-04-08T18:03:44.641Z,48.80
2024-04-08T18:06:12.953Z,59.67
2024-04-08T18:08:44.270Z,60.80
2024-04-08T18:11:13.414Z,48.67
2024-04-08T18:13:41.238Z,38.50
2024-04-08T18:16:19.725Z,40.63
2024-04-08T18:18:50.330Z,47.13
2024-04-08T18:21:18.492Z,38.80
2024-04-08T18:23:47.306Z,48.07
2024-04-08T18:26:18.670Z,39.00
2024-04-08T18:28:49.301Z,54.67
2024-04-08T18:31:17.653Z,45.00
2024-04-08T18:33:47.378Z,54.97
2024-04-08T18:36:16.179Z,57.97
2024-04-08T18:39:23.259Z,67.00
2024-04-08T18:41:54.426Z,43.30
2024-04-08T18:44:24.507Z,68.70
2024-04-08T18:50:08.274Z,48.60
2024-04-08T18:52:35.369Z,40.63
2024-04-08T18:55:02.454Z,55.77
2024-04-08T18:57:40.261Z,43.60
2024-04-08T19:00:28.324Z,58.93
2024-04-08T19:13:10.099Z,35.50
2024-04-08T19:18:57.608Z,43.63
2024-04-08T19:21:25.405Z,28.00
2024-04-08T19:23:52.458Z,41.37
2024-04-08T19:29:42.953Z,38.93
2024-04-08T19:32:44.930Z,34.90
2024-04-08T19:35:16.220Z,37.70
2024-04-08T19:37:44.668Z,32.53
2024-04-08T19:40:23.215Z,29.63
2024-04-08T19:43:03.529Z,60.40
2024-04-08T19:45:37.848Z,27.13
2024-04-08T19:48:13.593Z,34.63
2024-04-08T19:51:36.180Z,28.10
2024-04-08T19:54:46.622Z,27.97
2024-04-08T19:57:24.122Z,33.97
2024-04-08T20:02:39.712Z,32.77
2024-04-08T20:05:18.839Z,26.27
2024-04-08T20:08:17.447Z,40.23
2024-04-08T20:10:51.563Z,27.53
2024-04-08T20:13:34.801Z,36.30
2024-04-08T20:16:16.506Z,32.03
2024-04-08T20:18:46.918Z,35.90
2024-04-08T20:25:10.201Z,34.37
2024-04-08T20:27:37.829Z,30.00
2024-04-08T20:30:07.095Z,47.40
2024-04-08T20:35:44.186Z,32.70
2024-04-08T20:43:40.786Z,38.77
2024-04-08T20:47:23.272Z,32.27
2024-04-08T20:58:35.147Z,23.23
2024-04-08T21:31:57.687Z,37.87
2024-04-08T21:38:21.141Z,26.03
2024-04-08T21:41:24.233Z,31.07
2024-04-08T21:44:36.959Z,26.60
2024-04-08T21:49:39.487Z,29.63
2024-04-08T21:52:13.217Z,31.83
2024-04-08T21:54:40.681Z,31.50
2024-04-08T21:57:13.695Z,40.70
2024-04-08T22:00:01.574Z,28.53
2024-04-08T22:02:28.787Z,27.00
2024-04-08T22:05:23.239Z,24.97
2024-04-08T22:10:48.421Z,23.53
2024-04-08T22:13:15.647Z,28.70
2024-04-08T22:15:43.418Z,30.80
2024-04-08T22:18:14.214Z,28.83
2024-04-08T22:21:26.812Z,21.73
2024-04-08T22:25:17.700Z,21.23
2024-04-08T22:27:29.712Z,35.77
2024-04-08T22:36:37.809Z,31.33
2024-04-08T22:39:09.074Z,36.47
2024-04-08T22:41:44.363Z,19.13
2024-04-08T22:44:19.950Z,30.10
2024-04-08T22:46:55.575Z,24.10
2024-04-08T22:58:49.235Z,24.03
2024-04-08T23:01:25.364Z,21.17
2024-04-08T23:09:02.284Z,21.23
2024-04-08T23:12:18.660Z,31.77
2024-04-08T23:15:28.361Z,31.43
2024-04-08T23:19:06.639Z,21.60
2024-04-08T23:22:12.514Z,27.07
2024-04-08T23:24:58.948Z,18.07
2024-04-08T23:28:01.810Z,23.37
2024-04-08T23:30:52.898Z,27.97
2024-04-08T23:34:14.875Z,35.77
2024-04-08T23:44:38.247Z,32.20
2024-04-08T23:54:20.977Z,15.23
2024-04-08T23:57:02.729Z,23.40
2024-04-08T23:59:33.196Z,14.47
